If you wish to contribute or participate in the discussions about articles you are invited to join SKYbrary as a registered user

 Actions

Osaka International Airport

From SKYbrary Wiki

RJOO
Airport
ICAO: RJOO – IATA: ITM
Summary
Name Osaka International Airport
Region Asia and Pacific
Territory Japan JP.gif
Location Itami, Hyogo Prefecture
Serving Itami, Ikeda and Toyonaka
Elevation 11.887 m <br />39 ft11.887 m <br />
Coordinates 34° 47' 2.44" N, 135° 26' 23.06" E
Runways
Designator Length Width Surface ROPS
14L/32R 1828 m5,997.375 ft <br /> 46 m150.919 ft <br /> ASP yes/yes
14R/32L 2999 m9,839.239 ft <br /> 61 m200.131 ft <br /> CON yes/yes


METAR
Observation RJOO 180400Z 23005KT 160V280 9999 -RA FEW020 SCT050 BKN100 25/18 Q1004
Station Osaka International Airport
Date/Time 18 June 2021 04:00:00
Wind direction 230°
Wind speed 05 kts
Lowest cloud amount few clouds
Temperature 25°C
Dew point 18°C
Humidity 65%
QNH 1004 hPa
Weather condition light rain

Osaka International Airport is the primary domestic airport for the Kansai region of Japan, including the major cities of Osaka, Kyoto, and Kobe.

Climatology

Humid subtropical climate (Köppen climate classification Cfa).

Maps

Terrain

Loading map...

Airport Layout

Loading map...


Accidents & Serious Incidents at or in vicinity of RJOO

None on SKYbrary